Peshastin, WA (98847)

10:58 PM PDT on October 24, 2014 (GMT -0700)
Mountain Home Lodge Leavenworth, WA | Change Station
CLOSE
Current Station
Personal Weather Station
Location: Leavenworth, WA
Elevation: 2044 ft
Nearby Weather Stations

Elev 2044 ft 47.57 °N, 120.65 °W | Updated 2 minutes ago

Rain
Rain
42.2 °F
Feels Like 42 °F
N
0.0
Wind Variable Wind from ENE
Gusts 3.0 mph

Today
High -- | Low -- °F
--% Chance of Precip.
Yesterday
High -- | Low -- °F
Precip. -- in
7:34 AM 5:57 PM
New Moon, 2% visible
Pressure 29.97 in
Visibility 6.0 miles
Clouds Overcast 500 ft
Windchill 42 °F
Dew Point 40 °F
Humidity 93%
Rainfall 0.27 in
Snow Depth 0 in , 0 in
UV 0 out of 12
Pollen 1.40 out of 12
Air Quality Not available.
Flu Activity Sporadic
METAR KEAT 250555Z AUTO 25004KT 6SM -RA BR OVC005 09/07 A2996 RMK AO2 CIG 002V008 SLP149 P0001 60016 T00890072 10117 20089 58007

More Conditions Fewer Conditions

Pressure 29.97 in
Visibility 6.0 miles
Clouds Overcast 500 ft
Windchill 42 °F
Dew Point 40 °F
Humidity 93%
Rainfall 0.27 in
Snow Depth 0 in , 0 in
UV 0 out of 12
Pollen 1.40 out of 12
Air Quality Not available.
Flu Activity Sporadic
METAR KEAT 250555Z AUTO 25004KT 6SM -RA BR OVC005 09/07 A2996 RMK AO2 CIG 002V008 SLP149 P0001 60016 T00890072 10117 20089 58007

More Conditions Fewer Conditions

10-Day Weather Forecast

Almanac

Astronomy

Oct. 24, 2014 Rise Set
Actual Time 7:34 AM PDT 5:57 PM PDT
Civil Twilight 7:02 AM PDT 6:29 PM PDT
Nautical Twilight 6:26 AM PDT 7:05 PM PDT
Astronomical Twilight 5:51 AM PDT 7:40 PM PDT
Moon 8:21 AM PDT (10/24) 6:37 PM PDT (10/24)
Length of Visible Light 11h 26m
Length of Day
10h 23m
Tomorrow will be 3m 12s shorter.
New Moon, 2% of the Moon is Illuminated
Oct 25
New Moon
Oct 30
First Quarter
Nov 6
Full
Nov 14
Last Quarter
Nov 22
New

Yesterday's Extremes

State Highs State Lows

Community

WunderPhotos

Upload Photos

1,764,785 photos uploaded!

Nearby

Snow Depth

Station Depth Elevation
Blewett Pass 0 in 4270 ft
Grouse Camp 0 in 5380 ft
Sasse Ridge 0 in 4200 ft
Stevens Pass 0 in 4070 ft
Trough 0 in 5300 ft

Earthquake Activity

City Distance Mag. Time & Date
No recent earthquake activity has been reported nearby.
Minimum magnitude displayed is 2.5.

Coastal Water Temperatures

Place Temperature
No Stations Reporting

Nearby Weather Stations